< < Back
Terminal Aerodrome Forecast


Current Version              Previous Versions:   1  2  3  4  5  6  7  8  9  

Terminal Aerodrome Forecast

888
FTUS44 KHUN 281728
TAFHSV
TAF
KHSV 281728Z 2818/2918 15006KT P6SM SKC
     FM290600 15005KT P6SM FEW250 WS013/20030KT
     FM291500 18010KT P6SM BKN025=

Latest METAR

286
SAUS80 KWBC 290700
MTRHSV
METAR KHSV 290653Z AUTO 11005KT 10SM CLR 03/M05 A3019 RMK AO2 SLP225
T00331050


USA.gov is the U.S. government's official web portal to all federal, state and local government web resources and services.